createdAt,value
2022-12-25T00:02:35.000Z,4.85
2022-12-25T00:07:35.000Z,4.39
2022-12-25T00:12:34.000Z,3.51
2022-12-25T00:17:34.000Z,3.61
2022-12-25T00:22:34.000Z,3.95
2022-12-25T00:27:35.000Z,3.58
2022-12-25T00:32:34.000Z,3.58
2022-12-25T00:37:35.000Z,3.98
2022-12-25T00:47:35.000Z,3.63
2022-12-25T00:52:35.000Z,3.32
2022-12-25T18:53:01.000Z,11.06
2022-12-25T18:57:35.000Z,10.86
2022-12-25T19:02:35.000Z,11.02
2022-12-25T19:07:35.000Z,10.53
2022-12-25T19:12:35.000Z,10.6
2022-12-25T19:17:42.000Z,10.6
2022-12-25T19:22:35.000Z,10.55
2022-12-25T19:27:35.000Z,9.7
2022-12-25T19:32:34.000Z,8.99
2022-12-25T19:37:35.000Z,8.72
2022-12-25T19:42:35.000Z,8.53
2022-12-25T19:47:34.000Z,7.68
2022-12-25T19:52:35.000Z,4.58
2022-12-25T19:57:35.000Z,3.79
2022-12-25T20:02:35.000Z,4.83
2022-12-25T20:07:34.000Z,4.98
2022-12-25T20:12:35.000Z,4.07
2022-12-25T20:17:34.000Z,1.09
2022-12-25T20:22:35.000Z,1.45
2022-12-25T20:27:34.000Z,1.66
2022-12-25T20:32:35.000Z,1.66
2022-12-25T20:37:35.000Z,1.88
2022-12-25T20:42:35.000Z,2.45
2022-12-25T20:47:35.000Z,3.67
2022-12-25T20:52:35.000Z,4.76
2022-12-25T20:57:35.000Z,3.46
2022-12-25T21:02:46.000Z,2.7
2022-12-25T21:07:35.000Z,2.47
2022-12-25T21:12:34.000Z,2.49
2022-12-25T21:17:34.000Z,2.67
2022-12-25T21:22:35.000Z,2.21
2022-12-25T21:27:35.000Z,2.38
2022-12-25T21:32:34.000Z,2.69
2022-12-25T21:37:35.000Z,2.87
2022-12-25T21:42:35.000Z,3.08
2022-12-25T21:47:35.000Z,3.08
2022-12-25T21:52:35.000Z,4.07
2022-12-25T21:57:35.000Z,3.95
2022-12-25T22:02:35.000Z,4.26
2022-12-25T22:07:35.000Z,3.16
2022-12-25T22:12:43.000Z,3.39
2022-12-25T22:17:35.000Z,3.09
2022-12-25T22:22:35.000Z,2.11
2022-12-25T22:27:34.000Z,2.6
2022-12-25T22:32:35.000Z,3.02
2022-12-25T22:37:35.000Z,2.21
2022-12-25T22:42:35.000Z,2.2
2022-12-25T22:47:35.000Z,1.86
2022-12-25T22:52:34.000Z,2.14
2022-12-25T22:57:34.000Z,2.25
2022-12-25T23:02:35.000Z,2.06
2022-12-25T23:07:35.000Z,2.06
2022-12-25T23:12:34.000Z,2.25
2022-12-25T23:17:35.000Z,2.89
2022-12-25T23:22:34.000Z,2.06
2022-12-25T23:27:34.000Z,2.41
2022-12-25T23:32:35.000Z,2.19
2022-12-25T23:37:34.000Z,2.31
2022-12-25T23:42:35.000Z,2.83
2022-12-25T23:47:34.000Z,2.86
2022-12-25T23:52:35.000Z,4.42
2022-12-25T23:57:35.000Z,4.23
